createdAt,value
2022-10-12T00:00:07.044Z,7.03
2022-10-12T00:02:50.947Z,7.45
2022-10-12T00:05:18.440Z,6.65
2022-10-12T00:07:45.758Z,6.60
2022-10-12T00:10:13.302Z,7.45
2022-10-12T00:12:40.650Z,5.93
2022-10-12T00:15:08.534Z,5.55
2022-10-12T00:17:36.500Z,5.95
2022-10-12T00:20:05.319Z,6.75
2022-10-12T00:22:32.876Z,6.38
2022-10-12T00:25:00.245Z,6.82
2022-10-12T00:27:27.587Z,6.57
2022-10-12T00:29:54.973Z,6.40
2022-10-12T00:32:22.575Z,6.45
2022-10-12T00:34:50.016Z,7.55
2022-10-12T00:37:17.388Z,7.38
2022-10-12T00:39:44.933Z,9.38
2022-10-12T00:42:13.263Z,8.25
2022-10-12T00:50:35.934Z,10.55
2022-10-12T00:53:10.135Z,7.93
2022-10-12T00:55:41.312Z,9.23
2022-10-12T00:58:09.700Z,8.48
2022-10-12T01:00:39.024Z,8.73
2022-10-12T01:03:10.048Z,9.05
2022-10-12T01:05:40.856Z,8.55
2022-10-12T01:08:08.231Z,8.52
2022-10-12T01:10:35.650Z,8.55
2022-10-12T01:13:03.935Z,9.45
2022-10-12T01:15:39.898Z,9.40
2022-10-12T01:24:09.742Z,7.93
2022-10-12T01:29:53.653Z,8.13
2022-10-12T01:32:27.140Z,8.77
2022-10-12T01:40:29.740Z,8.57
2022-10-12T01:42:58.908Z,8.07
2022-10-12T01:45:26.447Z,7.88
2022-10-12T01:47:55.591Z,8.27
2022-10-12T01:50:28.300Z,7.05
2022-10-12T02:01:26.736Z,10.47
2022-10-12T02:04:24.194Z,9.75
2022-10-12T02:07:00.139Z,8.02
2022-10-12T02:09:30.314Z,8.13
2022-10-12T02:12:06.266Z,7.40
2022-10-12T02:14:41.035Z,7.50
2022-10-12T02:17:13.383Z,7.88
2022-10-12T02:19:46.328Z,7.97
2022-10-12T02:22:15.870Z,7.47
2022-10-12T02:24:46.866Z,7.35
2022-10-12T02:27:16.190Z,7.88
2022-10-12T02:29:47.193Z,7.18
2022-10-12T02:35:03.090Z,6.68
2022-10-12T02:40:22.121Z,6.70
2022-10-12T02:43:11.324Z,6.78
2022-10-12T02:48:14.133Z,5.50
2022-10-12T02:53:09.301Z,5.47
2022-10-12T02:55:48.888Z,6.85
2022-10-12T02:58:17.219Z,5.90
2022-10-12T03:00:44.652Z,6.43
2022-10-12T03:03:12.127Z,6.95
2022-10-12T03:05:39.712Z,5.97
2022-10-12T03:08:07.178Z,6.57
2022-10-12T03:10:35.146Z,6.18
2022-10-12T03:13:02.792Z,6.55
2022-10-12T03:15:31.005Z,6.18
2022-10-12T03:17:58.840Z,6.63
2022-10-12T03:20:26.494Z,6.07
2022-10-12T03:22:53.957Z,6.80
2022-10-12T03:25:21.430Z,6.05
2022-10-12T03:27:48.845Z,6.43
2022-10-12T03:30:16.570Z,5.78
2022-10-12T03:32:44.117Z,6.22
2022-10-12T03:35:11.652Z,5.88
2022-10-12T03:37:39.555Z,5.97
2022-10-12T03:40:08.499Z,7.00
2022-10-12T03:42:35.929Z,6.40
2022-10-12T03:45:03.592Z,7.28
2022-10-12T03:47:31.238Z,6.32
2022-10-12T03:49:58.701Z,5.78
2022-10-12T03:52:26.418Z,5.78
2022-10-12T03:54:54.250Z,5.40
2022-10-12T03:57:22.108Z,5.07
2022-10-12T03:59:50.396Z,5.70
2022-10-12T04:02:18.249Z,6.68
2022-10-12T04:04:45.644Z,5.75
2022-10-12T04:07:13.246Z,6.25
2022-10-12T04:09:40.864Z,6.35
2022-10-12T04:12:08.483Z,5.32
2022-10-12T04:14:35.977Z,5.93
2022-10-12T04:17:04.499Z,6.25
2022-10-12T04:19:32.180Z,6.40
2022-10-12T04:21:59.725Z,6.25
2022-10-12T04:24:27.663Z,6.55
2022-10-12T04:26:55.224Z,6.13
2022-10-12T04:29:23.174Z,6.82
2022-10-12T04:31:50.743Z,7.32
2022-10-12T04:34:18.636Z,7.07
2022-10-12T04:36:46.464Z,8.63
2022-10-12T04:39:14.008Z,7.03
2022-10-12T04:41:41.475Z,7.45
2022-10-12T04:44:09.150Z,6.63
2022-10-12T04:46:36.580Z,7.68
2022-10-12T04:49:04.089Z,7.40
2022-10-12T04:51:31.639Z,6.72
2022-10-12T04:53:59.106Z,7.05
2022-10-12T04:56:27.074Z,5.97
2022-10-12T04:58:54.541Z,6.88
2022-10-12T05:01:22.257Z,6.72
2022-10-12T05:03:50.048Z,6.78
2022-10-12T05:06:17.531Z,7.18
2022-10-12T05:08:49.835Z,6.82
2022-10-12T05:11:17.650Z,6.07
2022-10-12T05:13:45.247Z,7.43
2022-10-12T05:16:12.784Z,6.25
2022-10-12T05:18:40.451Z,7.03
2022-10-12T05:21:08.113Z,7.07
2022-10-12T05:23:35.628Z,6.25
2022-10-12T05:26:03.319Z,7.35
2022-10-12T05:28:30.966Z,6.68
2022-10-12T05:30:58.506Z,6.93
2022-10-12T05:33:26.139Z,7.00
2022-10-12T05:35:56.497Z,7.10
2022-10-12T05:38:24.453Z,6.78
2022-10-12T05:40:54.370Z,7.40
2022-10-12T05:43:25.375Z,7.18
2022-10-12T05:45:53.099Z,7.03
2022-10-12T05:48:20.844Z,9.18
2022-10-12T05:50:48.462Z,7.90
2022-10-12T05:53:16.162Z,9.38
2022-10-12T05:55:57.018Z,9.90
2022-10-12T05:58:25.866Z,9.95
2022-10-12T06:00:54.214Z,10.57
2022-10-12T06:03:26.043Z,9.50
2022-10-12T06:05:54.488Z,9.25
2022-10-12T06:08:22.142Z,9.25
2022-10-12T06:10:51.777Z,9.07
2022-10-12T06:13:20.195Z,10.18
2022-10-12T06:15:49.358Z,9.57
2022-10-12T06:18:18.642Z,9.93
2022-10-12T06:20:49.381Z,10.95
2022-10-12T06:23:17.993Z,9.52
2022-10-12T06:25:48.388Z,9.88
2022-10-12T06:28:17.471Z,9.55
2022-10-12T06:30:45.143Z,8.32
2022-10-12T06:33:12.736Z,8.75
2022-10-12T06:35:40.497Z,8.48
2022-10-12T06:38:08.067Z,8.38
2022-10-12T06:40:35.833Z,8.07
2022-10-12T06:43:03.582Z,7.95
2022-10-12T06:45:32.191Z,7.55
2022-10-12T06:48:00.741Z,7.45
2022-10-12T06:50:28.660Z,8.02
2022-10-12T06:52:57.156Z,6.95
2022-10-12T06:55:24.727Z,7.75
2022-10-12T06:57:52.235Z,6.95
2022-10-12T07:00:19.811Z,8.38
2022-10-12T07:02:50.390Z,7.28
2022-10-12T07:05:18.727Z,7.05
2022-10-12T07:07:46.318Z,6.90
2022-10-12T07:10:13.921Z,7.95
2022-10-12T07:12:41.540Z,5.68
2022-10-12T07:15:09.544Z,6.60
2022-10-12T07:17:37.378Z,6.07
2022-10-12T07:20:06.019Z,6.50
2022-10-12T07:22:33.773Z,4.88
2022-10-12T07:25:01.237Z,6.90
2022-10-12T07:27:30.430Z,6.13
2022-10-12T07:29:57.858Z,5.90
2022-10-12T07:32:25.573Z,5.07
2022-10-12T07:34:53.128Z,6.18
2022-10-12T07:37:20.580Z,5.93
2022-10-12T07:39:48.119Z,5.45
2022-10-12T07:42:19.244Z,6.30
2022-10-12T07:44:47.289Z,6.40
2022-10-12T07:47:16.752Z,5.90
2022-10-12T07:49:44.388Z,6.70
2022-10-12T07:52:11.821Z,5.90
2022-10-12T07:54:39.228Z,6.20
2022-10-12T07:57:06.604Z,4.95
2022-10-12T07:59:34.080Z,5.72
2022-10-12T08:02:01.544Z,5.00
2022-10-12T08:04:29.268Z,5.40
2022-10-12T08:06:58.270Z,5.50
2022-10-12T08:09:36.197Z,5.28
2022-10-12T08:12:04.820Z,4.97
2022-10-12T08:14:32.294Z,5.05
2022-10-12T08:16:59.717Z,3.38
2022-10-12T08:19:29.648Z,3.38
2022-10-12T08:21:59.330Z,3.00
2022-10-12T08:24:26.804Z,3.05
2022-10-12T08:26:56.885Z,2.58
2022-10-12T08:29:28.002Z,2.58
2022-10-12T08:31:55.429Z,1.30
2022-10-12T08:34:25.253Z,1.75
2022-10-12T08:36:52.985Z,1.42
2022-10-12T08:39:20.338Z,1.33
2022-10-12T08:45:01.147Z,1.73
2022-10-12T08:50:19.101Z,1.45
2022-10-12T08:52:56.113Z,1.30
2022-10-12T08:55:44.811Z,0.85
2022-10-12T08:58:20.907Z,0.90
2022-10-12T09:00:52.786Z,0.98
2022-10-12T09:14:25.650Z,0.88
2022-10-12T09:16:56.258Z,1.10
2022-10-12T09:19:36.128Z,0.77
2022-10-12T09:22:05.693Z,0.88
2022-10-12T09:24:36.804Z,0.82
2022-10-12T09:27:17.434Z,0.50
2022-10-12T09:29:49.569Z,0.70
2022-10-12T09:35:14.138Z,1.10
2022-10-12T09:37:42.094Z,1.00
2022-10-12T09:40:21.882Z,0.57
2022-10-12T09:42:50.626Z,0.60
2022-10-12T09:45:20.949Z,0.65
2022-10-12T09:50:52.800Z,0.60
2022-10-12T09:58:54.346Z,0.45
2022-10-12T10:04:24.347Z,1.00
2022-10-12T10:06:52.109Z,0.50
2022-10-12T10:12:22.932Z,1.23
2022-10-12T10:14:52.816Z,0.70
2022-10-12T10:17:26.548Z,1.13
2022-10-12T10:19:56.084Z,0.98
2022-10-12T10:22:24.781Z,1.52
2022-10-12T10:24:59.947Z,1.13
2022-10-12T10:27:37.375Z,0.90
2022-10-12T10:30:32.499Z,1.20
2022-10-12T10:33:20.260Z,1.00
2022-10-12T10:38:48.768Z,1.00
2022-10-12T10:43:50.113Z,0.47
2022-10-12T10:46:26.371Z,0.73
2022-10-12T10:49:01.840Z,0.88
2022-10-12T10:57:10.799Z,1.15
2022-10-12T11:02:38.817Z,0.80
2022-10-12T11:05:14.484Z,1.00
2022-10-12T11:07:54.799Z,0.90
2022-10-12T11:10:48.733Z,0.93
2022-10-12T11:13:56.158Z,0.80
2022-10-12T11:19:26.790Z,1.02
2022-10-12T11:22:03.306Z,0.60
2022-10-12T11:24:43.632Z,1.02
2022-10-12T11:27:39.259Z,0.88
2022-10-12T11:30:14.972Z,0.70
2022-10-12T11:32:47.034Z,1.23
2022-10-12T11:35:24.985Z,1.30
2022-10-12T11:37:59.640Z,1.10
2022-10-12T11:40:48.100Z,1.00
2022-10-12T11:43:25.656Z,1.10
2022-10-12T11:45:57.074Z,0.90
2022-10-12T11:48:29.916Z,1.20
2022-10-12T11:51:03.901Z,1.13
2022-10-12T11:56:39.993Z,0.95
2022-10-12T11:59:20.065Z,1.15
2022-10-12T12:02:01.021Z,1.08
2022-10-12T12:07:45.611Z,1.98
2022-10-12T12:13:20.777Z,1.50
2022-10-12T12:18:30.369Z,1.58
2022-10-12T12:21:13.553Z,2.17
2022-10-12T12:23:43.908Z,2.97
2022-10-12T12:28:52.979Z,1.75
2022-10-12T12:34:17.211Z,1.17
2022-10-12T12:36:48.090Z,1.42
2022-10-12T12:39:34.247Z,1.20
2022-10-12T12:42:04.039Z,1.35
2022-10-12T12:49:53.997Z,0.88
2022-10-12T12:52:29.461Z,0.90
2022-10-12T13:09:36.316Z,1.38
2022-10-12T13:20:22.088Z,1.20
2022-10-12T13:22:52.194Z,1.52
2022-10-12T13:28:11.001Z,1.65
2022-10-12T13:36:35.740Z,1.70
2022-10-12T13:39:21.720Z,2.17
2022-10-12T13:41:52.432Z,2.30
2022-10-12T13:44:34.865Z,1.85
2022-10-12T13:47:20.811Z,1.92
2022-10-12T13:49:48.570Z,1.98
2022-10-12T13:54:53.035Z,1.85
2022-10-12T14:02:58.680Z,2.45
2022-10-12T14:05:28.986Z,2.50
2022-10-12T14:08:03.642Z,2.95
2022-10-12T14:10:35.750Z,3.00
2022-10-12T14:13:05.786Z,3.03
2022-10-12T14:15:36.561Z,2.80
2022-10-12T14:18:04.743Z,3.17
2022-10-12T14:20:37.480Z,3.40
2022-10-12T14:23:25.256Z,3.20
2022-10-12T14:25:54.824Z,4.65
2022-10-12T14:28:38.226Z,3.90
2022-10-12T14:31:05.852Z,4.25
2022-10-12T14:33:33.441Z,3.75
2022-10-12T14:39:13.498Z,3.75
2022-10-12T14:41:51.135Z,4.43
2022-10-12T14:44:20.806Z,4.07
2022-10-12T14:49:45.297Z,3.72
2022-10-12T14:52:42.877Z,3.78
2022-10-12T14:55:16.131Z,4.57
2022-10-12T14:57:44.184Z,4.97
2022-10-12T15:00:23.640Z,4.78
2022-10-12T15:02:51.808Z,4.88
2022-10-12T15:05:21.837Z,4.55
2022-10-12T15:07:50.147Z,4.97
2022-10-12T15:10:20.920Z,5.38
2022-10-12T15:12:48.692Z,4.93
2022-10-12T15:15:29.402Z,4.68
2022-10-12T15:17:57.395Z,4.95
2022-10-12T15:20:26.243Z,4.13
2022-10-12T15:22:54.096Z,5.40
2022-10-12T15:25:33.022Z,4.90
2022-10-12T15:28:00.543Z,4.10
2022-10-12T15:30:28.146Z,5.35
2022-10-12T15:32:55.687Z,4.88
2022-10-12T15:35:26.261Z,4.82
2022-10-12T15:37:56.535Z,4.25
2022-10-12T15:40:25.130Z,5.45
2022-10-12T15:42:52.632Z,5.30
2022-10-12T15:45:38.896Z,5.63
2022-10-12T15:48:08.848Z,5.30
2022-10-12T15:50:41.212Z,5.68
2022-10-12T15:53:11.870Z,5.80
2022-10-12T15:55:39.516Z,4.95
2022-10-12T15:58:07.210Z,4.55
2022-10-12T16:00:35.191Z,5.97
2022-10-12T16:03:02.840Z,4.63
2022-10-12T16:05:33.970Z,5.47
2022-10-12T16:08:03.184Z,5.22
2022-10-12T16:10:35.362Z,3.92
2022-10-12T16:13:03.723Z,4.50
2022-10-12T16:15:33.661Z,3.78
2022-10-12T16:18:02.809Z,3.47
2022-10-12T16:20:32.613Z,3.13
2022-10-12T16:23:01.478Z,3.15
2022-10-12T16:25:29.275Z,3.63
2022-10-12T16:27:58.451Z,3.85
2022-10-12T16:30:27.439Z,3.55
2022-10-12T16:32:55.326Z,3.20
2022-10-12T16:35:23.556Z,3.85
2022-10-12T16:37:51.318Z,4.05
2022-10-12T16:40:19.277Z,3.45
2022-10-12T16:42:53.506Z,2.95
2022-10-12T16:45:22.382Z,3.38
2022-10-12T16:47:50.919Z,3.20
2022-10-12T16:50:26.019Z,3.38
2022-10-12T16:52:55.976Z,4.00
2022-10-12T16:55:23.673Z,3.45
2022-10-12T16:57:59.921Z,3.25
2022-10-12T17:00:28.073Z,3.60
2022-10-12T17:02:57.489Z,3.95
2022-10-12T17:05:25.272Z,3.42
2022-10-12T17:07:55.549Z,3.15
2022-10-12T17:10:23.062Z,3.35
2022-10-12T17:12:50.720Z,3.08
2022-10-12T17:15:18.500Z,3.50
2022-10-12T17:17:46.103Z,3.30
2022-10-12T17:20:13.765Z,3.50
2022-10-12T17:22:49.669Z,3.22
2022-10-12T17:25:21.725Z,3.10
2022-10-12T17:27:50.905Z,3.25
2022-10-12T17:30:24.783Z,3.67
2022-10-12T17:32:53.873Z,3.42
2022-10-12T17:35:21.439Z,3.22
2022-10-12T17:37:54.951Z,3.30
2022-10-12T17:40:25.212Z,3.42
2022-10-12T17:42:52.768Z,3.75
2022-10-12T17:45:20.438Z,2.90
2022-10-12T17:47:49.385Z,3.20
2022-10-12T17:50:17.074Z,3.15
2022-10-12T17:52:44.612Z,3.97
2022-10-12T17:55:29.574Z,3.63
2022-10-12T17:57:59.833Z,3.28
2022-10-12T18:00:27.851Z,3.95
2022-10-12T18:02:55.438Z,2.88
2022-10-12T18:05:23.011Z,3.10
2022-10-12T18:07:50.959Z,3.63
2022-10-12T18:10:18.951Z,2.95
2022-10-12T18:12:47.014Z,3.95
2022-10-12T18:15:14.618Z,3.20
2022-10-12T18:17:42.206Z,3.58
2022-10-12T18:20:10.358Z,3.42
2022-10-12T18:22:37.887Z,3.10
2022-10-12T18:25:05.872Z,3.63
2022-10-12T18:27:34.593Z,3.15
2022-10-12T18:30:02.303Z,3.28
2022-10-12T18:32:30.442Z,3.92
2022-10-12T18:34:58.890Z,3.63
2022-10-12T18:37:26.808Z,3.30
2022-10-12T18:39:54.722Z,4.05
2022-10-12T18:42:22.325Z,4.30
2022-10-12T18:44:49.952Z,4.30
2022-10-12T18:47:20.934Z,3.53
2022-10-12T18:49:51.889Z,3.30
2022-10-12T18:52:21.271Z,3.40
2022-10-12T18:54:51.099Z,3.30
2022-10-12T18:57:18.785Z,3.38
2022-10-12T18:59:46.399Z,3.35
2022-10-12T19:02:17.525Z,3.03
2022-10-12T19:04:45.166Z,3.03
2022-10-12T19:07:13.030Z,3.53
2022-10-12T19:09:40.547Z,3.10
2022-10-12T19:12:21.864Z,3.33
2022-10-12T19:14:50.411Z,3.15
2022-10-12T19:17:22.653Z,2.83
2022-10-12T19:19:51.643Z,2.63
2022-10-12T19:22:19.430Z,3.33
2022-10-12T19:24:48.411Z,3.30
2022-10-12T19:27:15.980Z,3.33
2022-10-12T19:29:45.781Z,3.55
2022-10-12T19:32:13.559Z,3.63
2022-10-12T19:34:41.079Z,3.38
2022-10-12T19:37:08.550Z,3.40
2022-10-12T19:39:36.710Z,4.18
2022-10-12T19:42:04.190Z,3.85
2022-10-12T19:44:31.705Z,4.43
2022-10-12T19:47:00.326Z,3.95
2022-10-12T19:49:27.975Z,3.47
2022-10-12T19:51:56.009Z,4.20
2022-10-12T19:54:23.774Z,4.30
2022-10-12T19:56:51.287Z,4.32
2022-10-12T19:59:18.817Z,4.43
2022-10-12T20:01:48.398Z,4.30
2022-10-12T20:04:16.454Z,4.43
2022-10-12T20:06:44.256Z,3.88
2022-10-12T20:09:11.865Z,3.38
2022-10-12T20:11:39.402Z,3.65
2022-10-12T20:14:07.988Z,3.88
2022-10-12T20:16:36.614Z,3.40
2022-10-12T20:19:07.210Z,4.07
2022-10-12T20:21:36.876Z,3.50
2022-10-12T20:24:05.211Z,4.50
2022-10-12T20:26:32.746Z,3.85
2022-10-12T20:29:01.290Z,3.55
2022-10-12T20:31:29.773Z,3.83
2022-10-12T20:33:58.548Z,3.88
2022-10-12T20:36:28.789Z,4.38
2022-10-12T20:38:58.149Z,4.85
2022-10-12T20:41:26.661Z,4.63
2022-10-12T20:43:56.709Z,4.35
2022-10-12T20:46:24.692Z,4.25
2022-10-12T20:48:57.361Z,3.35
2022-10-12T20:51:28.894Z,4.03
2022-10-12T20:53:59.586Z,4.15
2022-10-12T20:56:29.288Z,3.47
2022-10-12T20:58:57.015Z,4.13
2022-10-12T21:01:26.299Z,4.78
2022-10-12T21:03:54.812Z,3.53
2022-10-12T21:06:23.759Z,4.30
2022-10-12T21:08:54.201Z,4.22
2022-10-12T21:11:22.266Z,3.78
2022-10-12T21:13:50.396Z,3.38
2022-10-12T21:16:18.814Z,4.47
2022-10-12T21:18:46.198Z,4.10
2022-10-12T21:21:19.126Z,3.47
2022-10-12T21:23:55.851Z,4.53
2022-10-12T21:26:25.272Z,3.28
2022-10-12T21:28:53.021Z,3.97
2022-10-12T21:31:21.169Z,4.60
2022-10-12T21:33:48.674Z,5.30
2022-10-12T21:36:20.461Z,4.28
2022-10-12T21:38:48.136Z,5.00
2022-10-12T21:41:16.762Z,4.68
2022-10-12T21:43:44.482Z,4.75
2022-10-12T21:46:14.957Z,4.65
2022-10-12T21:48:43.034Z,4.88
2022-10-12T21:51:11.113Z,4.65
2022-10-12T21:53:40.295Z,4.35
2022-10-12T21:56:14.542Z,5.30
2022-10-12T21:58:42.143Z,4.43
2022-10-12T22:01:13.894Z,5.15
2022-10-12T22:06:14.922Z,4.93
2022-10-12T22:08:43.493Z,3.92
2022-10-12T22:11:13.886Z,5.40
2022-10-12T22:13:41.351Z,4.35
2022-10-12T22:16:12.123Z,4.40
2022-10-12T22:18:40.277Z,4.47
2022-10-12T22:21:10.795Z,4.63
2022-10-12T22:23:38.413Z,5.30
2022-10-12T22:26:09.801Z,4.13
2022-10-12T22:28:37.447Z,4.78
2022-10-12T22:31:08.832Z,4.78
2022-10-12T22:33:37.621Z,4.80
2022-10-12T22:36:06.763Z,4.78
2022-10-12T22:38:35.309Z,4.57
2022-10-12T22:41:18.085Z,5.72
2022-10-12T22:43:48.397Z,5.25
2022-10-12T22:46:15.972Z,4.72
2022-10-12T22:48:43.453Z,5.68
2022-10-12T22:51:17.645Z,5.93
2022-10-12T22:53:45.305Z,4.85
2022-10-12T22:56:18.619Z,5.78
2022-10-12T22:58:48.630Z,5.40
2022-10-12T23:01:18.067Z,6.72
2022-10-12T23:03:46.295Z,5.38
2022-10-12T23:06:16.834Z,5.53
2022-10-12T23:08:44.892Z,5.55
2022-10-12T23:11:15.838Z,5.65
2022-10-12T23:13:44.171Z,5.90
2022-10-12T23:16:15.986Z,6.60
2022-10-12T23:18:43.440Z,5.93
2022-10-12T23:21:14.863Z,6.13
2022-10-12T23:23:43.544Z,5.60
2022-10-12T23:26:14.721Z,6.72
2022-10-12T23:28:42.938Z,5.53
2022-10-12T23:31:21.070Z,5.35
2022-10-12T23:33:57.508Z,5.20
2022-10-12T23:36:24.930Z,5.40
2022-10-12T23:38:52.406Z,5.68
2022-10-12T23:41:19.869Z,4.97
2022-10-12T23:43:47.659Z,5.55
2022-10-12T23:46:15.138Z,5.75
2022-10-12T23:48:42.649Z,6.15
2022-10-12T23:51:10.990Z,5.97
2022-10-12T23:53:39.026Z,5.65
2022-10-12T23:56:07.237Z,6.05
2022-10-12T23:58:35.103Z,6.07
